createdAt,value
2023-08-22T00:00:30.807Z,87.37
2023-08-22T00:02:59.520Z,87.70
2023-08-22T00:05:27.197Z,87.44
2023-08-22T00:07:54.759Z,87.68
2023-08-22T00:10:21.417Z,87.50
2023-08-22T00:12:48.127Z,87.66
2023-08-22T00:15:14.816Z,87.77
2023-08-22T00:17:43.195Z,88.22
2023-08-22T00:20:12.622Z,88.01
2023-08-22T00:22:39.283Z,88.25
2023-08-22T00:25:06.537Z,88.32
2023-08-22T00:27:35.079Z,88.79
2023-08-22T00:30:02.023Z,88.27
2023-08-22T00:32:31.266Z,88.32
2023-08-22T00:35:00.127Z,88.71
2023-08-22T00:37:27.753Z,88.68
2023-08-22T00:39:55.493Z,88.81
2023-08-22T00:42:22.165Z,88.96
2023-08-22T00:44:48.797Z,88.79
2023-08-22T00:47:19.406Z,88.62
2023-08-22T00:49:46.264Z,88.47
2023-08-22T00:52:13.249Z,88.94
2023-08-22T00:54:39.942Z,88.64
2023-08-22T00:57:07.461Z,88.60
2023-08-22T00:59:34.284Z,88.64
2023-08-22T01:02:01.258Z,88.73
2023-08-22T01:04:27.977Z,88.75
2023-08-22T01:07:03.477Z,88.88
2023-08-22T01:09:37.288Z,88.74
2023-08-22T01:12:23.089Z,88.99
2023-08-22T01:15:22.369Z,89.06
2023-08-22T01:17:50.788Z,89.04
2023-08-22T01:20:17.786Z,89.20
2023-08-22T01:22:44.486Z,88.94
2023-08-22T01:25:11.363Z,89.40
2023-08-22T01:27:50.523Z,89.30
2023-08-22T01:30:24.817Z,88.94
2023-08-22T01:32:55.954Z,89.14
2023-08-22T01:35:24.938Z,89.28
2023-08-22T01:37:54.208Z,89.69
2023-08-22T01:40:22.354Z,89.59
2023-08-22T01:42:49.046Z,89.84
2023-08-22T01:45:15.703Z,89.80
2023-08-22T01:47:43.868Z,89.55
2023-08-22T01:50:12.048Z,89.64
2023-08-22T01:52:38.660Z,89.80
2023-08-22T01:55:10.304Z,89.94
2023-08-22T01:57:36.922Z,89.96
2023-08-22T02:00:04.758Z,90.02
2023-08-22T02:02:31.732Z,89.90
2023-08-22T02:04:58.379Z,89.65
2023-08-22T02:07:25.044Z,90.04
2023-08-22T02:09:51.740Z,90.14
2023-08-22T02:12:18.368Z,90.06
2023-08-22T02:14:44.991Z,90.19
2023-08-22T02:17:12.444Z,90.30
2023-08-22T02:19:39.093Z,90.00
2023-08-22T02:22:06.011Z,89.78
2023-08-22T02:24:32.784Z,90.08
2023-08-22T02:26:59.423Z,90.02
2023-08-22T02:29:26.112Z,90.20
2023-08-22T02:31:52.794Z,90.07
2023-08-22T02:34:20.238Z,90.50
2023-08-22T02:36:46.966Z,90.27
2023-08-22T02:39:13.748Z,90.00
2023-08-22T02:41:40.567Z,90.26
2023-08-22T02:44:07.358Z,90.52
2023-08-22T02:46:34.061Z,89.95
2023-08-22T02:49:02.057Z,89.94
2023-08-22T02:51:28.728Z,90.24
2023-08-22T02:53:55.402Z,90.04
2023-08-22T02:56:22.127Z,90.21
2023-08-22T02:58:48.794Z,90.12
2023-08-22T03:01:18.791Z,90.34
2023-08-22T03:03:50.678Z,90.28
2023-08-22T03:06:18.187Z,90.32
2023-08-22T03:08:47.466Z,90.40
2023-08-22T03:11:14.193Z,90.71
2023-08-22T03:13:41.089Z,90.09
2023-08-22T03:16:08.803Z,90.38
2023-08-22T03:18:35.807Z,90.38
2023-08-22T03:21:02.428Z,90.28
2023-08-22T03:23:29.811Z,90.35
2023-08-22T03:26:00.893Z,90.81
2023-08-22T03:28:28.101Z,90.96
2023-08-22T03:30:59.855Z,90.90
2023-08-22T03:33:26.921Z,90.89
2023-08-22T03:35:56.206Z,90.85
2023-08-22T03:38:23.904Z,91.06
2023-08-22T03:40:50.610Z,91.09
2023-08-22T03:43:17.460Z,91.15
2023-08-22T03:45:44.880Z,91.14
2023-08-22T03:48:11.858Z,91.02
2023-08-22T03:50:42.309Z,91.00
2023-08-22T03:53:10.676Z,90.86
2023-08-22T03:55:37.723Z,91.10
2023-08-22T03:58:04.562Z,90.35
2023-08-22T04:00:31.761Z,90.25
2023-08-22T04:03:00.052Z,90.11
2023-08-22T04:05:26.859Z,90.17
2023-08-22T04:07:59.409Z,89.82
2023-08-22T04:10:30.262Z,89.30
2023-08-22T04:12:56.970Z,89.18
2023-08-22T04:15:23.631Z,88.68
2023-08-22T04:17:51.453Z,88.74
2023-08-22T04:20:18.621Z,88.14
2023-08-22T04:22:46.092Z,88.21
2023-08-22T04:25:12.843Z,88.04
2023-08-22T04:27:40.575Z,87.79
2023-08-22T04:30:10.540Z,87.29
2023-08-22T04:32:37.488Z,86.73
2023-08-22T04:35:04.403Z,86.33
2023-08-22T04:37:31.452Z,85.13
2023-08-22T04:39:58.153Z,84.09
2023-08-22T04:42:25.000Z,81.65
2023-08-22T04:44:51.766Z,81.06
2023-08-22T04:47:18.419Z,80.63
2023-08-22T04:49:45.124Z,80.61
2023-08-22T04:52:11.939Z,79.93
2023-08-22T04:54:38.518Z,79.60
2023-08-22T04:57:05.298Z,79.53
2023-08-22T04:59:31.961Z,78.91
2023-08-22T05:01:58.584Z,78.22
2023-08-22T05:04:25.227Z,77.81
2023-08-22T05:06:52.023Z,77.73
2023-08-22T05:09:18.732Z,78.18
2023-08-22T05:11:50.378Z,78.16
2023-08-22T05:14:17.011Z,78.60
2023-08-22T05:16:44.949Z,78.60
2023-08-22T05:19:11.629Z,78.58
2023-08-22T05:21:38.293Z,78.42
2023-08-22T05:24:05.156Z,78.36
2023-08-22T05:26:31.770Z,78.65
2023-08-22T05:28:59.770Z,78.62
2023-08-22T05:31:27.547Z,78.10
2023-08-22T05:33:54.534Z,78.23
2023-08-22T16:57:48.616Z,59.76
2023-08-22T17:00:17.854Z,60.84
2023-08-22T17:02:47.368Z,61.56
2023-08-22T17:05:14.214Z,62.09
2023-08-22T17:07:40.860Z,62.63
2023-08-22T17:10:09.603Z,63.38
2023-08-22T17:12:36.720Z,64.07
2023-08-22T17:15:03.559Z,64.57
2023-08-22T17:17:30.200Z,65.37
2023-08-22T17:19:57.705Z,65.63
2023-08-22T17:22:24.419Z,66.30
2023-08-22T17:24:51.867Z,66.77
2023-08-22T17:27:18.719Z,67.26
2023-08-22T17:29:47.609Z,67.68
2023-08-22T17:32:14.564Z,68.49
2023-08-22T17:34:41.575Z,68.89
2023-08-22T17:37:17.520Z,68.80
2023-08-22T17:39:45.788Z,68.96
2023-08-22T17:42:12.554Z,68.80
2023-08-22T17:44:39.190Z,68.82
2023-08-22T17:47:09.727Z,68.78
2023-08-22T17:49:36.354Z,68.92
2023-08-22T17:52:03.198Z,68.79
2023-08-22T17:54:29.839Z,69.13
2023-08-22T17:56:59.913Z,69.05
2023-08-22T17:59:28.417Z,69.80
2023-08-22T18:01:57.632Z,70.00
2023-08-22T18:04:24.272Z,70.43
2023-08-22T18:06:50.917Z,70.43
2023-08-22T18:09:27.954Z,70.71
2023-08-22T18:11:54.644Z,70.89
2023-08-22T18:14:28.150Z,70.45
2023-08-22T18:16:56.004Z,70.63
2023-08-22T18:19:28.909Z,70.36
2023-08-22T18:21:57.508Z,70.61
2023-08-22T18:24:24.711Z,70.55
2023-08-22T18:26:54.461Z,70.83
2023-08-22T18:29:21.280Z,70.69
2023-08-22T18:31:48.005Z,70.57
2023-08-22T18:34:19.589Z,70.90
2023-08-22T18:36:49.513Z,71.07
2023-08-22T18:39:16.113Z,70.79
2023-08-22T18:41:42.737Z,71.18
2023-08-22T18:44:13.796Z,71.36
2023-08-22T18:46:40.479Z,70.82
2023-08-22T18:49:07.104Z,70.00
2023-08-22T18:51:34.886Z,69.70
2023-08-22T18:54:01.597Z,69.88
2023-08-22T18:56:30.833Z,69.90
2023-08-22T18:59:00.866Z,69.47
2023-08-22T19:01:29.970Z,70.26
2023-08-22T19:03:56.769Z,70.43
2023-08-22T19:06:24.268Z,70.53
2023-08-22T19:09:53.629Z,70.78
2023-08-22T19:12:27.614Z,71.48
2023-08-22T19:14:54.337Z,71.88
2023-08-22T19:18:25.139Z,71.84
2023-08-22T19:20:36.429Z,72.10
2023-08-22T19:23:03.379Z,71.77
2023-08-22T19:25:30.121Z,71.59
2023-08-22T19:28:08.331Z,71.42
2023-08-22T19:30:54.019Z,71.07
2023-08-22T19:33:26.933Z,71.14
2023-08-22T19:35:57.079Z,71.66
2023-08-22T19:38:29.425Z,71.82
2023-08-22T19:41:07.446Z,72.26
2023-08-22T19:43:56.576Z,72.54
2023-08-22T19:46:24.709Z,72.75
2023-08-22T19:52:00.026Z,72.88
2023-08-22T19:54:26.922Z,73.23
2023-08-22T19:59:56.352Z,73.62
2023-08-22T20:02:23.199Z,74.00
2023-08-22T20:04:53.135Z,74.32
2023-08-22T20:07:19.924Z,74.52
2023-08-22T20:09:46.664Z,74.36
2023-08-22T20:12:13.361Z,74.66
2023-08-22T20:14:41.136Z,74.94
2023-08-22T20:17:08.498Z,75.20
2023-08-22T20:19:35.109Z,75.24
2023-08-22T20:22:03.027Z,75.49
2023-08-22T20:24:30.905Z,75.71
2023-08-22T20:27:02.161Z,75.88
2023-08-22T20:29:29.262Z,76.01
2023-08-22T20:31:57.712Z,76.31
2023-08-22T20:34:27.922Z,76.58
2023-08-22T20:36:54.749Z,76.99
2023-08-22T20:39:21.689Z,77.37
2023-08-22T20:41:50.911Z,77.54
2023-08-22T20:44:19.830Z,77.46
2023-08-22T20:46:46.642Z,77.45
2023-08-22T20:49:13.374Z,77.96
2023-08-22T20:51:42.408Z,78.23
2023-08-22T20:54:09.462Z,78.18
2023-08-22T20:56:43.264Z,78.07
2023-08-22T20:59:09.985Z,78.26
2023-08-22T21:01:39.255Z,78.33
2023-08-22T21:04:06.280Z,78.22
2023-08-22T21:06:33.073Z,78.52
2023-08-22T21:08:59.670Z,78.49
2023-08-22T21:11:27.914Z,78.73
2023-08-22T21:13:54.521Z,78.58
2023-08-22T21:16:21.224Z,78.57
2023-08-22T21:18:50.148Z,78.90
2023-08-22T21:21:16.767Z,78.84
2023-08-22T21:23:43.494Z,79.36
2023-08-22T21:26:10.140Z,79.68
2023-08-22T21:28:36.780Z,79.99
2023-08-22T21:31:03.765Z,79.98
2023-08-22T21:33:30.426Z,80.00
2023-08-22T21:35:57.101Z,80.08
2023-08-22T21:38:24.166Z,80.16
2023-08-22T21:40:50.842Z,80.13
2023-08-22T21:43:17.499Z,80.53
2023-08-22T21:45:54.523Z,79.93
2023-08-22T21:48:24.341Z,80.09
2023-08-22T21:50:50.958Z,80.08
2023-08-22T21:53:17.666Z,80.05
2023-08-22T21:55:44.545Z,80.23
2023-08-22T21:58:11.389Z,80.19
2023-08-22T22:00:38.435Z,80.26
2023-08-22T22:03:05.377Z,80.38
2023-08-22T22:05:32.033Z,80.44
2023-08-22T22:07:58.677Z,80.26
2023-08-22T22:10:26.224Z,80.44
2023-08-22T22:12:52.852Z,80.42
2023-08-22T22:15:19.667Z,80.93
2023-08-22T22:17:49.508Z,81.48
2023-08-22T22:20:16.686Z,80.92
2023-08-22T22:22:46.119Z,81.10
2023-08-22T22:25:13.937Z,81.25
2023-08-22T22:27:40.667Z,81.24
2023-08-22T22:30:08.110Z,81.08
2023-08-22T22:32:34.792Z,81.41
2023-08-22T22:35:01.486Z,81.25
2023-08-22T22:37:28.155Z,81.31
2023-08-22T22:39:54.847Z,80.98
2023-08-22T22:42:21.492Z,81.19
2023-08-22T22:44:48.111Z,81.36
2023-08-22T22:47:14.849Z,81.30
2023-08-22T22:49:41.466Z,81.55
2023-08-22T22:52:08.175Z,81.52
2023-08-22T22:54:35.327Z,81.44
2023-08-22T22:57:06.097Z,81.61
2023-08-22T22:59:36.203Z,81.78
2023-08-22T23:02:04.372Z,81.76
2023-08-22T23:04:30.991Z,82.06
2023-08-22T23:06:57.594Z,81.91
2023-08-22T23:09:25.237Z,82.02
2023-08-22T23:11:57.336Z,81.98
2023-08-22T23:14:39.378Z,81.76
2023-08-22T23:17:08.121Z,81.76
2023-08-22T23:19:34.748Z,82.10
2023-08-22T23:22:02.142Z,82.35
2023-08-22T23:24:29.451Z,82.66
2023-08-22T23:26:56.122Z,83.14
2023-08-22T23:29:23.363Z,83.43
2023-08-22T23:31:49.975Z,83.57
2023-08-22T23:34:16.614Z,83.72
2023-08-22T23:36:45.639Z,84.24
2023-08-22T23:39:12.302Z,84.40
2023-08-22T23:41:38.908Z,84.28
2023-08-22T23:44:13.304Z,84.25
2023-08-22T23:46:40.114Z,84.02
2023-08-22T23:49:07.502Z,83.77
2023-08-22T23:51:34.261Z,83.55
2023-08-22T23:54:00.971Z,83.78
2023-08-22T23:56:27.742Z,83.98
2023-08-22T23:58:54.380Z,84.03
